sensor_id;sensor_type;location;lat;lon;timestamp;temperature;humidity
13754;DHT22;6948;51.216;6.778;2023-04-06T00:01:02;7.20;99.90
13754;DHT22;6948;51.216;6.778;2023-04-06T00:03:28;7.20;99.90
13754;DHT22;6948;51.216;6.778;2023-04-06T00:05:53;7.20;99.90
13754;DHT22;6948;51.216;6.778;2023-04-06T00:08:19;7.20;99.90
13754;DHT22;6948;51.216;6.778;2023-04-06T00:10:46;7.20;99.90
13754;DHT22;6948;51.216;6.778;2023-04-06T00:13:12;7.20;99.90
13754;DHT22;6948;51.216;6.778;2023-04-06T00:15:38;7.20;99.90
13754;DHT22;6948;51.216;6.778;2023-04-06T00:18:03;7.10;99.90
13754;DHT22;6948;51.216;6.778;2023-04-06T00:20:29;7.10;99.90
13754;DHT22;6948;51.216;6.778;2023-04-06T00:22:55;7.20;99.90
13754;DHT22;6948;51.216;6.778;2023-04-06T00:25:21;7.10;99.90
13754;DHT22;6948;51.216;6.778;2023-04-06T00:27:46;7.00;99.90
13754;DHT22;6948;51.216;6.778;2023-04-06T00:30:12;7.00;99.90
13754;DHT22;6948;51.216;6.778;2023-04-06T00:32:38;6.90;99.90
13754;DHT22;6948;51.216;6.778;2023-04-06T00:35:04;6.90;99.90
13754;DHT22;6948;51.216;6.778;2023-04-06T00:37:30;6.90;99.90
13754;DHT22;6948;51.216;6.778;2023-04-06T00:39:56;6.90;99.90
13754;DHT22;6948;51.216;6.778;2023-04-06T00:42:22;6.90;99.90
13754;DHT22;6948;51.216;6.778;2023-04-06T00:44:53;6.80;99.90
13754;DHT22;6948;51.216;6.778;2023-04-06T00:47:20;6.70;99.90
13754;DHT22;6948;51.216;6.778;2023-04-06T00:49:46;6.70;99.90
13754;DHT22;6948;51.216;6.778;2023-04-06T00:52:12;6.70;99.90
13754;DHT22;6948;51.216;6.778;2023-04-06T00:54:37;6.60;99.90
13754;DHT22;6948;51.216;6.778;2023-04-06T00:57:03;6.60;99.90
13754;DHT22;6948;51.216;6.778;2023-04-06T00:59:29;6.50;99.90
13754;DHT22;6948;51.216;6.778;2023-04-06T01:01:55;6.40;99.90
13754;DHT22;6948;51.216;6.778;2023-04-06T01:04:21;6.40;99.90
13754;DHT22;6948;51.216;6.778;2023-04-06T01:06:48;6.30;99.90
13754;DHT22;6948;51.216;6.778;2023-04-06T01:09:14;6.30;99.90
13754;DHT22;6948;51.216;6.778;2023-04-06T01:11:40;6.20;99.90
13754;DHT22;6948;51.216;6.778;2023-04-06T01:14:06;6.30;99.90
13754;DHT22;6948;51.216;6.778;2023-04-06T01:16:32;6.30;99.90
13754;DHT22;6948;51.216;6.778;2023-04-06T01:18:57;6.20;99.90
13754;DHT22;6948;51.216;6.778;2023-04-06T01:21:23;6.20;99.90
13754;DHT22;6948;51.216;6.778;2023-04-06T01:23:49;6.10;99.90
13754;DHT22;6948;51.216;6.778;2023-04-06T01:26:14;6.00;99.90
13754;DHT22;6948;51.216;6.778;2023-04-06T01:28:40;6.00;99.90
13754;DHT22;6948;51.216;6.778;2023-04-06T01:31:07;5.90;99.90
13754;DHT22;6948;51.216;6.778;2023-04-06T01:33:33;5.80;99.90
13754;DHT22;6948;51.216;6.778;2023-04-06T01:35:59;5.70;99.90
13754;DHT22;6948;51.216;6.778;2023-04-06T01:38:25;5.70;99.90
13754;DHT22;6948;51.216;6.778;2023-04-06T01:40:52;5.80;99.90
13754;DHT22;6948;51.216;6.778;2023-04-06T01:43:17;5.80;99.90
13754;DHT22;6948;51.216;6.778;2023-04-06T01:45:43;5.90;99.90
13754;DHT22;6948;51.216;6.778;2023-04-06T01:48:09;6.00;99.90
13754;DHT22;6948;51.216;6.778;2023-04-06T01:50:34;5.90;99.90
13754;DHT22;6948;51.216;6.778;2023-04-06T01:53:00;5.90;99.90
13754;DHT22;6948;51.216;6.778;2023-04-06T01:55:26;5.90;99.90
13754;DHT22;6948;51.216;6.778;2023-04-06T01:57:52;5.90;99.90
13754;DHT22;6948;51.216;6.778;2023-04-06T02:00:17;5.80;99.90
13754;DHT22;6948;51.216;6.778;2023-04-06T02:02:43;5.80;99.90
13754;DHT22;6948;51.216;6.778;2023-04-06T02:05:08;5.70;99.90
13754;DHT22;6948;51.216;6.778;2023-04-06T02:07:34;5.70;99.90
13754;DHT22;6948;51.216;6.778;2023-04-06T02:10:00;5.60;99.90
13754;DHT22;6948;51.216;6.778;2023-04-06T02:12:26;5.60;99.90
13754;DHT22;6948;51.216;6.778;2023-04-06T02:14:51;5.60;99.90
13754;DHT22;6948;51.216;6.778;2023-04-06T02:17:17;5.70;99.90
13754;DHT22;6948;51.216;6.778;2023-04-06T02:19:43;5.70;99.90
13754;DHT22;6948;51.216;6.778;2023-04-06T02:22:09;5.80;99.90
13754;DHT22;6948;51.216;6.778;2023-04-06T02:24:35;5.80;99.90
13754;DHT22;6948;51.216;6.778;2023-04-06T02:27:01;5.80;99.90
13754;DHT22;6948;51.216;6.778;2023-04-06T02:29:26;5.70;99.90
13754;DHT22;6948;51.216;6.778;2023-04-06T02:31:52;5.70;99.90
13754;DHT22;6948;51.216;6.778;2023-04-06T02:34:17;5.60;99.90
13754;DHT22;6948;51.216;6.778;2023-04-06T02:36:44;5.50;99.90
13754;DHT22;6948;51.216;6.778;2023-04-06T02:39:10;5.50;99.90
13754;DHT22;6948;51.216;6.778;2023-04-06T02:41:36;5.50;99.90
13754;DHT22;6948;51.216;6.778;2023-04-06T02:44:03;5.50;99.90
13754;DHT22;6948;51.216;6.778;2023-04-06T02:46:28;5.50;99.90
13754;DHT22;6948;51.216;6.778;2023-04-06T02:48:54;5.50;99.90
13754;DHT22;6948;51.216;6.778;2023-04-06T02:51:20;5.30;99.90
13754;DHT22;6948;51.216;6.778;2023-04-06T02:53:46;5.10;99.90
13754;DHT22;6948;51.216;6.778;2023-04-06T02:56:12;5.10;99.90
13754;DHT22;6948;51.216;6.778;2023-04-06T02:58:37;5.00;99.90
13754;DHT22;6948;51.216;6.778;2023-04-06T03:01:03;5.10;99.90
13754;DHT22;6948;51.216;6.778;2023-04-06T03:03:29;5.20;99.90
13754;DHT22;6948;51.216;6.778;2023-04-06T03:05:55;5.20;99.90
13754;DHT22;6948;51.216;6.778;2023-04-06T03:08:24;5.20;99.90
13754;DHT22;6948;51.216;6.778;2023-04-06T03:10:50;5.30;99.90
13754;DHT22;6948;51.216;6.778;2023-04-06T03:13:15;5.20;99.90
13754;DHT22;6948;51.216;6.778;2023-04-06T03:15:41;5.10;99.90
13754;DHT22;6948;51.216;6.778;2023-04-06T03:18:07;5.20;99.90
13754;DHT22;6948;51.216;6.778;2023-04-06T03:20:32;5.30;99.90
13754;DHT22;6948;51.216;6.778;2023-04-06T03:22:58;5.40;99.90
13754;DHT22;6948;51.216;6.778;2023-04-06T03:25:24;5.30;99.90
13754;DHT22;6948;51.216;6.778;2023-04-06T03:27:49;5.30;99.90
13754;DHT22;6948;51.216;6.778;2023-04-06T03:30:15;5.20;99.90
13754;DHT22;6948;51.216;6.778;2023-04-06T03:32:43;5.20;99.90
13754;DHT22;6948;51.216;6.778;2023-04-06T03:35:09;5.20;99.90
13754;DHT22;6948;51.216;6.778;2023-04-06T03:37:34;5.20;99.90
13754;DHT22;6948;51.216;6.778;2023-04-06T03:40:00;5.10;99.90
13754;DHT22;6948;51.216;6.778;2023-04-06T03:42:26;5.10;99.90
13754;DHT22;6948;51.216;6.778;2023-04-06T03:44:52;5.20;99.90
13754;DHT22;6948;51.216;6.778;2023-04-06T03:47:17;5.10;99.90
13754;DHT22;6948;51.216;6.778;2023-04-06T03:49:43;5.00;99.90
13754;DHT22;6948;51.216;6.778;2023-04-06T03:52:12;5.00;99.90
13754;DHT22;6948;51.216;6.778;2023-04-06T03:54:37;5.00;99.90
13754;DHT22;6948;51.216;6.778;2023-04-06T03:57:04;5.10;99.90
13754;DHT22;6948;51.216;6.778;2023-04-06T03:59:29;5.10;99.90
13754;DHT22;6948;51.216;6.778;2023-04-06T04:01:55;5.10;99.90
13754;DHT22;6948;51.216;6.778;2023-04-06T04:04:21;5.20;99.90
13754;DHT22;6948;51.216;6.778;2023-04-06T04:06:47;5.20;99.90
13754;DHT22;6948;51.216;6.778;2023-04-06T04:09:12;5.20;99.90
13754;DHT22;6948;51.216;6.778;2023-04-06T04:11:38;5.10;99.90
13754;DHT22;6948;51.216;6.778;2023-04-06T04:14:03;5.10;99.90
13754;DHT22;6948;51.216;6.778;2023-04-06T04:16:29;4.90;99.90
13754;DHT22;6948;51.216;6.778;2023-04-06T04:18:55;4.80;99.90
13754;DHT22;6948;51.216;6.778;2023-04-06T04:21:21;4.80;99.90
13754;DHT22;6948;51.216;6.778;2023-04-06T04:23:46;4.80;99.90
13754;DHT22;6948;51.216;6.778;2023-04-06T04:26:12;4.80;99.90
13754;DHT22;6948;51.216;6.778;2023-04-06T04:28:38;4.90;99.90
13754;DHT22;6948;51.216;6.778;2023-04-06T04:31:03;4.90;99.90
13754;DHT22;6948;51.216;6.778;2023-04-06T04:33:29;4.90;99.90
13754;DHT22;6948;51.216;6.778;2023-04-06T04:35:54;4.90;99.90
13754;DHT22;6948;51.216;6.778;2023-04-06T04:38:20;4.80;99.90
13754;DHT22;6948;51.216;6.778;2023-04-06T04:40:46;4.80;99.90
13754;DHT22;6948;51.216;6.778;2023-04-06T04:43:11;4.80;99.90
13754;DHT22;6948;51.216;6.778;2023-04-06T04:45:37;4.80;99.90
13754;DHT22;6948;51.216;6.778;2023-04-06T04:48:03;4.80;99.90
13754;DHT22;6948;51.216;6.778;2023-04-06T04:50:30;4.60;99.90
13754;DHT22;6948;51.216;6.778;2023-04-06T04:52:56;4.60;99.90
13754;DHT22;6948;51.216;6.778;2023-04-06T04:55:22;4.50;99.90
13754;DHT22;6948;51.216;6.778;2023-04-06T04:57:47;4.50;99.90
13754;DHT22;6948;51.216;6.778;2023-04-06T05:00:16;4.50;99.90
13754;DHT22;6948;51.216;6.778;2023-04-06T05:02:41;4.60;99.90
13754;DHT22;6948;51.216;6.778;2023-04-06T05:05:07;4.60;99.90
13754;DHT22;6948;51.216;6.778;2023-04-06T05:07:33;4.60;99.90
13754;DHT22;6948;51.216;6.778;2023-04-06T05:09:59;4.70;99.90
13754;DHT22;6948;51.216;6.778;2023-04-06T05:12:25;4.70;99.90
13754;DHT22;6948;51.216;6.778;2023-04-06T05:14:53;4.80;99.90
13754;DHT22;6948;51.216;6.778;2023-04-06T05:17:19;4.80;99.90
13754;DHT22;6948;51.216;6.778;2023-04-06T05:19:44;4.80;99.90
13754;DHT22;6948;51.216;6.778;2023-04-06T05:22:10;4.70;99.90
13754;DHT22;6948;51.216;6.778;2023-04-06T05:24:36;4.80;99.90
13754;DHT22;6948;51.216;6.778;2023-04-06T05:27:02;4.80;99.90
13754;DHT22;6948;51.216;6.778;2023-04-06T05:29:29;5.00;99.90
13754;DHT22;6948;51.216;6.778;2023-04-06T05:31:54;5.10;99.90
13754;DHT22;6948;51.216;6.778;2023-04-06T05:34:20;5.10;99.90
13754;DHT22;6948;51.216;6.778;2023-04-06T05:36:46;5.10;99.90
13754;DHT22;6948;51.216;6.778;2023-04-06T05:39:12;5.00;99.90
13754;DHT22;6948;51.216;6.778;2023-04-06T05:41:38;5.00;99.90
13754;DHT22;6948;51.216;6.778;2023-04-06T05:44:03;5.00;99.90
13754;DHT22;6948;51.216;6.778;2023-04-06T05:46:29;5.10;99.90
13754;DHT22;6948;51.216;6.778;2023-04-06T05:48:55;5.10;99.90
13754;DHT22;6948;51.216;6.778;2023-04-06T05:51:21;5.10;99.90
13754;DHT22;6948;51.216;6.778;2023-04-06T05:53:47;5.10;99.90
13754;DHT22;6948;51.216;6.778;2023-04-06T05:56:12;5.20;99.90
13754;DHT22;6948;51.216;6.778;2023-04-06T05:58:38;5.30;99.90
13754;DHT22;6948;51.216;6.778;2023-04-06T06:01:04;5.30;99.90
13754;DHT22;6948;51.216;6.778;2023-04-06T06:03:30;5.30;99.90
13754;DHT22;6948;51.216;6.778;2023-04-06T06:06:01;5.20;99.90
13754;DHT22;6948;51.216;6.778;2023-04-06T06:08:27;5.20;99.90
13754;DHT22;6948;51.216;6.778;2023-04-06T06:10:53;5.20;99.90
13754;DHT22;6948;51.216;6.778;2023-04-06T06:13:19;5.20;99.90
13754;DHT22;6948;51.216;6.778;2023-04-06T06:15:44;5.10;99.90
13754;DHT22;6948;51.216;6.778;2023-04-06T06:18:10;5.10;99.90
13754;DHT22;6948;51.216;6.778;2023-04-06T06:20:36;5.20;99.90
13754;DHT22;6948;51.216;6.778;2023-04-06T06:23:02;5.30;99.90
13754;DHT22;6948;51.216;6.778;2023-04-06T06:25:28;5.30;99.90
13754;DHT22;6948;51.216;6.778;2023-04-06T06:27:56;5.30;99.90
13754;DHT22;6948;51.216;6.778;2023-04-06T06:30:22;5.20;99.90
13754;DHT22;6948;51.216;6.778;2023-04-06T06:32:48;5.30;99.90
13754;DHT22;6948;51.216;6.778;2023-04-06T06:35:14;5.40;99.90
13754;DHT22;6948;51.216;6.778;2023-04-06T06:37:39;5.50;99.90
13754;DHT22;6948;51.216;6.778;2023-04-06T06:40:05;5.50;99.90
13754;DHT22;6948;51.216;6.778;2023-04-06T06:42:31;5.50;99.90
13754;DHT22;6948;51.216;6.778;2023-04-06T06:44:57;5.50;99.90
13754;DHT22;6948;51.216;6.778;2023-04-06T06:47:22;5.60;99.90
13754;DHT22;6948;51.216;6.778;2023-04-06T06:49:48;5.70;99.90
13754;DHT22;6948;51.216;6.778;2023-04-06T06:52:14;5.80;99.90
13754;DHT22;6948;51.216;6.778;2023-04-06T06:54:40;6.00;99.90
13754;DHT22;6948;51.216;6.778;2023-04-06T06:57:05;6.00;99.90
13754;DHT22;6948;51.216;6.778;2023-04-06T06:59:31;6.40;99.90
13754;DHT22;6948;51.216;6.778;2023-04-06T07:01:57;6.50;99.90
13754;DHT22;6948;51.216;6.778;2023-04-06T07:04:22;6.60;99.90
13754;DHT22;6948;51.216;6.778;2023-04-06T07:06:48;6.60;99.90
13754;DHT22;6948;51.216;6.778;2023-04-06T07:09:13;6.90;99.90
13754;DHT22;6948;51.216;6.778;2023-04-06T07:11:39;7.00;99.90
13754;DHT22;6948;51.216;6.778;2023-04-06T07:14:05;7.10;99.90
13754;DHT22;6948;51.216;6.778;2023-04-06T07:16:30;7.30;99.90
13754;DHT22;6948;51.216;6.778;2023-04-06T07:18:56;7.60;99.90
13754;DHT22;6948;51.216;6.778;2023-04-06T07:21:22;7.70;99.90
13754;DHT22;6948;51.216;6.778;2023-04-06T07:23:47;7.70;99.90
13754;DHT22;6948;51.216;6.778;2023-04-06T07:26:14;7.80;99.90
13754;DHT22;6948;51.216;6.778;2023-04-06T07:28:39;7.80;99.90
13754;DHT22;6948;51.216;6.778;2023-04-06T07:31:05;7.80;99.90
13754;DHT22;6948;51.216;6.778;2023-04-06T07:33:31;7.60;99.90
13754;DHT22;6948;51.216;6.778;2023-04-06T07:35:57;7.70;99.90
13754;DHT22;6948;51.216;6.778;2023-04-06T07:38:23;7.80;99.90
13754;DHT22;6948;51.216;6.778;2023-04-06T07:40:50;7.90;99.90
13754;DHT22;6948;51.216;6.778;2023-04-06T07:43:15;8.10;99.90
13754;DHT22;6948;51.216;6.778;2023-04-06T07:45:41;8.20;99.90
13754;DHT22;6948;51.216;6.778;2023-04-06T07:48:07;8.30;99.90
13754;DHT22;6948;51.216;6.778;2023-04-06T07:50:33;8.40;99.90
13754;DHT22;6948;51.216;6.778;2023-04-06T07:52:58;8.60;99.90
13754;DHT22;6948;51.216;6.778;2023-04-06T07:55:25;8.60;99.90
13754;DHT22;6948;51.216;6.778;2023-04-06T07:57:50;8.60;99.90
13754;DHT22;6948;51.216;6.778;2023-04-06T08:00:16;8.70;99.90
13754;DHT22;6948;51.216;6.778;2023-04-06T08:02:42;8.60;99.90
13754;DHT22;6948;51.216;6.778;2023-04-06T08:05:08;8.70;99.90
13754;DHT22;6948;51.216;6.778;2023-04-06T08:07:34;8.70;99.90
13754;DHT22;6948;51.216;6.778;2023-04-06T08:10:01;8.70;99.90
13754;DHT22;6948;51.216;6.778;2023-04-06T08:12:26;8.70;99.90
13754;DHT22;6948;51.216;6.778;2023-04-06T08:14:52;8.70;99.90
13754;DHT22;6948;51.216;6.778;2023-04-06T08:17:18;8.70;99.90
13754;DHT22;6948;51.216;6.778;2023-04-06T08:19:43;8.80;99.90
13754;DHT22;6948;51.216;6.778;2023-04-06T08:22:10;9.00;99.90
13754;DHT22;6948;51.216;6.778;2023-04-06T08:24:36;9.00;99.90
13754;DHT22;6948;51.216;6.778;2023-04-06T08:27:01;9.10;99.90
13754;DHT22;6948;51.216;6.778;2023-04-06T08:29:27;9.00;99.90
13754;DHT22;6948;51.216;6.778;2023-04-06T08:31:53;9.20;99.90
13754;DHT22;6948;51.216;6.778;2023-04-06T08:34:18;9.40;99.90
13754;DHT22;6948;51.216;6.778;2023-04-06T08:36:44;9.50;99.90
13754;DHT22;6948;51.216;6.778;2023-04-06T08:39:11;9.50;99.90
13754;DHT22;6948;51.216;6.778;2023-04-06T08:41:36;9.60;99.90
13754;DHT22;6948;51.216;6.778;2023-04-06T08:44:02;9.80;99.90
13754;DHT22;6948;51.216;6.778;2023-04-06T08:46:29;9.90;99.90
13754;DHT22;6948;51.216;6.778;2023-04-06T08:48:57;9.80;99.90
13754;DHT22;6948;51.216;6.778;2023-04-06T08:51:23;9.80;99.90
13754;DHT22;6948;51.216;6.778;2023-04-06T08:53:52;10.00;99.90
13754;DHT22;6948;51.216;6.778;2023-04-06T08:56:21;10.00;99.90
13754;DHT22;6948;51.216;6.778;2023-04-06T08:58:47;10.20;99.90
13754;DHT22;6948;51.216;6.778;2023-04-06T09:01:14;10.30;99.90
13754;DHT22;6948;51.216;6.778;2023-04-06T09:03:43;10.40;99.90
13754;DHT22;6948;51.216;6.778;2023-04-06T09:06:09;10.50;99.90
13754;DHT22;6948;51.216;6.778;2023-04-06T09:08:37;10.60;99.90
13754;DHT22;6948;51.216;6.778;2023-04-06T09:11:03;10.60;99.90
13754;DHT22;6948;51.216;6.778;2023-04-06T09:13:30;10.70;99.90
13754;DHT22;6948;51.216;6.778;2023-04-06T09:16:05;10.70;99.90
13754;DHT22;6948;51.216;6.778;2023-04-06T09:18:33;10.70;99.90
13754;DHT22;6948;51.216;6.778;2023-04-06T09:21:05;10.70;99.90
13754;DHT22;6948;51.216;6.778;2023-04-06T09:23:31;10.90;99.90
13754;DHT22;6948;51.216;6.778;2023-04-06T09:26:17;11.10;99.90
13754;DHT22;6948;51.216;6.778;2023-04-06T09:28:44;11.30;99.90
13754;DHT22;6948;51.216;6.778;2023-04-06T09:31:12;11.40;99.90
13754;DHT22;6948;51.216;6.778;2023-04-06T09:33:40;11.30;99.90
13754;DHT22;6948;51.216;6.778;2023-04-06T09:36:06;11.40;99.90
13754;DHT22;6948;51.216;6.778;2023-04-06T09:38:32;11.50;99.90
13754;DHT22;6948;51.216;6.778;2023-04-06T09:40:58;11.50;99.90
13754;DHT22;6948;51.216;6.778;2023-04-06T09:43:25;11.50;99.90
13754;DHT22;6948;51.216;6.778;2023-04-06T09:45:52;11.40;99.90
13754;DHT22;6948;51.216;6.778;2023-04-06T09:48:19;11.60;99.90
13754;DHT22;6948;51.216;6.778;2023-04-06T09:50:48;11.80;99.90
13754;DHT22;6948;51.216;6.778;2023-04-06T09:53:14;11.80;99.90
13754;DHT22;6948;51.216;6.778;2023-04-06T09:55:42;12.10;99.90
13754;DHT22;6948;51.216;6.778;2023-04-06T09:58:13;12.50;99.90
13754;DHT22;6948;51.216;6.778;2023-04-06T10:01:04;12.80;99.90
13754;DHT22;6948;51.216;6.778;2023-04-06T10:03:51;12.90;99.90
13754;DHT22;6948;51.216;6.778;2023-04-06T10:06:20;12.70;99.90
13754;DHT22;6948;51.216;6.778;2023-04-06T10:08:47;12.70;99.90
13754;DHT22;6948;51.216;6.778;2023-04-06T10:11:15;12.70;99.90
13754;DHT22;6948;51.216;6.778;2023-04-06T10:13:41;12.70;99.90
13754;DHT22;6948;51.216;6.778;2023-04-06T10:16:07;12.70;99.90
13754;DHT22;6948;51.216;6.778;2023-04-06T10:18:33;12.60;99.90
13754;DHT22;6948;51.216;6.778;2023-04-06T10:23:43;12.60;99.90
13754;DHT22;6948;51.216;6.778;2023-04-06T10:26:15;12.70;99.90
13754;DHT22;6948;51.216;6.778;2023-04-06T10:28:43;12.70;99.90
13754;DHT22;6948;51.216;6.778;2023-04-06T10:31:09;12.70;99.90
13754;DHT22;6948;51.216;6.778;2023-04-06T10:33:35;12.70;99.90
13754;DHT22;6948;51.216;6.778;2023-04-06T10:36:22;12.80;99.90
13754;DHT22;6948;51.216;6.778;2023-04-06T10:38:54;12.80;99.90
13754;DHT22;6948;51.216;6.778;2023-04-06T10:41:20;12.80;99.90
13754;DHT22;6948;51.216;6.778;2023-04-06T10:43:55;12.80;99.90
13754;DHT22;6948;51.216;6.778;2023-04-06T10:46:26;13.00;99.90
13754;DHT22;6948;51.216;6.778;2023-04-06T10:48:52;13.10;99.90
13754;DHT22;6948;51.216;6.778;2023-04-06T10:51:19;13.20;99.90
13754;DHT22;6948;51.216;6.778;2023-04-06T10:53:50;13.30;99.90
13754;DHT22;6948;51.216;6.778;2023-04-06T10:56:20;13.20;99.90
13754;DHT22;6948;51.216;6.778;2023-04-06T10:58:48;13.30;99.90
13754;DHT22;6948;51.216;6.778;2023-04-06T11:01:16;13.40;99.90
13754;DHT22;6948;51.216;6.778;2023-04-06T11:03:44;13.40;99.90
13754;DHT22;6948;51.216;6.778;2023-04-06T11:06:10;13.40;99.90
13754;DHT22;6948;51.216;6.778;2023-04-06T11:08:36;13.40;99.90
13754;DHT22;6948;51.216;6.778;2023-04-06T11:11:07;13.30;99.90
13754;DHT22;6948;51.216;6.778;2023-04-06T11:13:38;13.30;99.90
13754;DHT22;6948;51.216;6.778;2023-04-06T11:16:04;13.40;99.90
13754;DHT22;6948;51.216;6.778;2023-04-06T11:18:29;13.40;99.90
13754;DHT22;6948;51.216;6.778;2023-04-06T11:20:56;13.30;99.90
13754;DHT22;6948;51.216;6.778;2023-04-06T11:23:23;13.30;99.90
13754;DHT22;6948;51.216;6.778;2023-04-06T11:25:51;13.20;99.90
13754;DHT22;6948;51.216;6.778;2023-04-06T11:28:17;13.20;99.90
13754;DHT22;6948;51.216;6.778;2023-04-06T11:30:43;13.20;99.90
13754;DHT22;6948;51.216;6.778;2023-04-06T11:33:08;13.20;99.90
13754;DHT22;6948;51.216;6.778;2023-04-06T11:35:34;13.20;99.90
13754;DHT22;6948;51.216;6.778;2023-04-06T11:38:03;13.30;99.90
13754;DHT22;6948;51.216;6.778;2023-04-06T11:40:29;13.30;99.90
13754;DHT22;6948;51.216;6.778;2023-04-06T11:42:55;13.30;99.90
13754;DHT22;6948;51.216;6.778;2023-04-06T11:45:22;13.30;99.90
13754;DHT22;6948;51.216;6.778;2023-04-06T11:48:04;13.40;99.90
13754;DHT22;6948;51.216;6.778;2023-04-06T11:50:33;13.40;99.90
13754;DHT22;6948;51.216;6.778;2023-04-06T11:53:01;13.50;99.90
13754;DHT22;6948;51.216;6.778;2023-04-06T11:55:28;13.70;99.90
13754;DHT22;6948;51.216;6.778;2023-04-06T11:57:54;13.70;99.90
13754;DHT22;6948;51.216;6.778;2023-04-06T12:00:21;13.60;99.90
13754;DHT22;6948;51.216;6.778;2023-04-06T12:02:47;13.40;99.90
13754;DHT22;6948;51.216;6.778;2023-04-06T12:05:13;13.40;99.90
13754;DHT22;6948;51.216;6.778;2023-04-06T12:07:39;13.40;99.90
13754;DHT22;6948;51.216;6.778;2023-04-06T12:10:05;13.50;99.90
13754;DHT22;6948;51.216;6.778;2023-04-06T12:12:31;13.50;99.90
13754;DHT22;6948;51.216;6.778;2023-04-06T12:14:57;13.60;99.90
13754;DHT22;6948;51.216;6.778;2023-04-06T12:17:23;13.40;99.90
13754;DHT22;6948;51.216;6.778;2023-04-06T12:19:49;13.40;99.90
13754;DHT22;6948;51.216;6.778;2023-04-06T12:22:15;13.50;99.90
13754;DHT22;6948;51.216;6.778;2023-04-06T12:24:40;13.50;99.90
13754;DHT22;6948;51.216;6.778;2023-04-06T12:27:06;13.40;99.90
13754;DHT22;6948;51.216;6.778;2023-04-06T12:29:32;13.30;99.90
13754;DHT22;6948;51.216;6.778;2023-04-06T12:31:59;13.20;99.90
13754;DHT22;6948;51.216;6.778;2023-04-06T12:34:47;13.20;99.90
13754;DHT22;6948;51.216;6.778;2023-04-06T12:37:13;13.20;99.90
13754;DHT22;6948;51.216;6.778;2023-04-06T12:39:38;13.20;99.90
13754;DHT22;6948;51.216;6.778;2023-04-06T12:42:04;13.20;99.90
13754;DHT22;6948;51.216;6.778;2023-04-06T12:44:30;13.20;99.90
13754;DHT22;6948;51.216;6.778;2023-04-06T12:46:55;13.10;99.90
13754;DHT22;6948;51.216;6.778;2023-04-06T12:49:21;13.20;99.90
13754;DHT22;6948;51.216;6.778;2023-04-06T12:51:47;13.20;99.90
13754;DHT22;6948;51.216;6.778;2023-04-06T12:54:13;13.20;99.90
13754;DHT22;6948;51.216;6.778;2023-04-06T12:56:38;13.10;99.90
13754;DHT22;6948;51.216;6.778;2023-04-06T12:59:04;13.10;99.90
13754;DHT22;6948;51.216;6.778;2023-04-06T13:01:30;13.10;99.90
13754;DHT22;6948;51.216;6.778;2023-04-06T13:03:56;13.00;99.90
13754;DHT22;6948;51.216;6.778;2023-04-06T13:06:23;13.00;99.90
13754;DHT22;6948;51.216;6.778;2023-04-06T13:08:52;13.00;99.90
13754;DHT22;6948;51.216;6.778;2023-04-06T13:11:18;13.00;99.90
13754;DHT22;6948;51.216;6.778;2023-04-06T13:13:46;13.00;99.90
13754;DHT22;6948;51.216;6.778;2023-04-06T13:16:11;13.00;99.90
13754;DHT22;6948;51.216;6.778;2023-04-06T13:18:37;13.00;99.90
13754;DHT22;6948;51.216;6.778;2023-04-06T13:21:04;13.00;99.90
13754;DHT22;6948;51.216;6.778;2023-04-06T13:23:31;12.90;99.90
13754;DHT22;6948;51.216;6.778;2023-04-06T13:26:01;12.80;99.90
13754;DHT22;6948;51.216;6.778;2023-04-06T13:28:28;12.80;99.90
13754;DHT22;6948;51.216;6.778;2023-04-06T13:30:54;12.80;99.90
13754;DHT22;6948;51.216;6.778;2023-04-06T13:33:21;12.70;99.90
13754;DHT22;6948;51.216;6.778;2023-04-06T13:35:46;12.70;99.90
13754;DHT22;6948;51.216;6.778;2023-04-06T13:38:12;12.70;99.90
13754;DHT22;6948;51.216;6.778;2023-04-06T13:40:39;12.70;99.90
13754;DHT22;6948;51.216;6.778;2023-04-06T13:43:05;12.60;99.90
13754;DHT22;6948;51.216;6.778;2023-04-06T13:45:31;12.50;99.90
13754;DHT22;6948;51.216;6.778;2023-04-06T13:47:57;12.50;99.90
13754;DHT22;6948;51.216;6.778;2023-04-06T13:50:22;12.50;99.90
13754;DHT22;6948;51.216;6.778;2023-04-06T13:52:50;12.50;99.90
13754;DHT22;6948;51.216;6.778;2023-04-06T13:55:16;12.50;99.90
13754;DHT22;6948;51.216;6.778;2023-04-06T13:57:41;12.50;99.90
13754;DHT22;6948;51.216;6.778;2023-04-06T14:00:08;12.50;99.90
13754;DHT22;6948;51.216;6.778;2023-04-06T14:02:35;12.50;99.90
13754;DHT22;6948;51.216;6.778;2023-04-06T14:05:00;12.50;99.90
13754;DHT22;6948;51.216;6.778;2023-04-06T14:07:26;12.30;99.90
13754;DHT22;6948;51.216;6.778;2023-04-06T14:09:52;12.30;99.90
13754;DHT22;6948;51.216;6.778;2023-04-06T14:12:18;12.30;99.90
13754;DHT22;6948;51.216;6.778;2023-04-06T14:14:43;12.30;99.90
13754;DHT22;6948;51.216;6.778;2023-04-06T14:17:09;12.30;99.90
13754;DHT22;6948;51.216;6.778;2023-04-06T14:19:35;12.30;99.90
13754;DHT22;6948;51.216;6.778;2023-04-06T14:22:01;12.20;99.90
13754;DHT22;6948;51.216;6.778;2023-04-06T14:24:27;12.30;99.90
13754;DHT22;6948;51.216;6.778;2023-04-06T14:26:53;12.30;99.90
13754;DHT22;6948;51.216;6.778;2023-04-06T14:29:18;12.20;99.90
13754;DHT22;6948;51.216;6.778;2023-04-06T14:31:46;12.10;99.90
13754;DHT22;6948;51.216;6.778;2023-04-06T14:34:12;12.00;99.90
13754;DHT22;6948;51.216;6.778;2023-04-06T14:36:38;11.80;99.90
13754;DHT22;6948;51.216;6.778;2023-04-06T14:39:04;11.70;99.90
13754;DHT22;6948;51.216;6.778;2023-04-06T14:41:31;11.70;99.90
13754;DHT22;6948;51.216;6.778;2023-04-06T14:43:57;11.60;99.90
13754;DHT22;6948;51.216;6.778;2023-04-06T14:46:23;11.50;99.90
13754;DHT22;6948;51.216;6.778;2023-04-06T14:48:49;11.40;99.90
13754;DHT22;6948;51.216;6.778;2023-04-06T14:51:15;11.40;99.90
13754;DHT22;6948;51.216;6.778;2023-04-06T14:53:41;11.30;99.90
13754;DHT22;6948;51.216;6.778;2023-04-06T14:56:06;11.20;99.90
13754;DHT22;6948;51.216;6.778;2023-04-06T14:58:32;11.20;99.90
13754;DHT22;6948;51.216;6.778;2023-04-06T15:00:59;11.20;99.90
13754;DHT22;6948;51.216;6.778;2023-04-06T15:03:27;11.20;99.90
13754;DHT22;6948;51.216;6.778;2023-04-06T15:05:53;11.20;99.90
13754;DHT22;6948;51.216;6.778;2023-04-06T15:08:18;11.10;99.90
13754;DHT22;6948;51.216;6.778;2023-04-06T15:10:48;11.10;99.90
13754;DHT22;6948;51.216;6.778;2023-04-06T15:13:15;11.00;99.90
13754;DHT22;6948;51.216;6.778;2023-04-06T15:15:41;10.90;99.90
13754;DHT22;6948;51.216;6.778;2023-04-06T15:18:07;10.90;99.90
13754;DHT22;6948;51.216;6.778;2023-04-06T15:20:33;10.80;99.90
13754;DHT22;6948;51.216;6.778;2023-04-06T15:23:00;10.80;99.90
13754;DHT22;6948;51.216;6.778;2023-04-06T15:25:25;10.90;99.90
13754;DHT22;6948;51.216;6.778;2023-04-06T15:27:51;10.80;99.90
13754;DHT22;6948;51.216;6.778;2023-04-06T15:30:17;10.70;99.90
13754;DHT22;6948;51.216;6.778;2023-04-06T15:32:52;10.70;99.90
13754;DHT22;6948;51.216;6.778;2023-04-06T15:35:19;10.60;99.90
13754;DHT22;6948;51.216;6.778;2023-04-06T15:37:44;10.50;99.90
13754;DHT22;6948;51.216;6.778;2023-04-06T15:40:11;10.50;99.90
13754;DHT22;6948;51.216;6.778;2023-04-06T15:42:39;10.50;99.90
13754;DHT22;6948;51.216;6.778;2023-04-06T15:45:05;10.40;99.90
13754;DHT22;6948;51.216;6.778;2023-04-06T15:47:32;10.50;99.90
13754;DHT22;6948;51.216;6.778;2023-04-06T15:49:58;10.40;99.90
13754;DHT22;6948;51.216;6.778;2023-04-06T15:52:23;10.30;99.90